createdAt,value
2023-11-18T00:02:02.096Z,27.17
2023-11-18T00:04:29.772Z,19.37
2023-11-18T00:06:58.440Z,15.27
2023-11-18T00:09:25.965Z,17.75
2023-11-18T00:11:53.548Z,12.18
2023-11-18T00:14:22.148Z,12.67
2023-11-18T00:16:49.842Z,12.75
2023-11-18T00:19:18.465Z,20.85
2023-11-18T00:21:46.012Z,11.85
2023-11-18T00:24:15.275Z,13.50
2023-11-18T00:26:43.294Z,13.50
2023-11-18T00:29:10.873Z,12.68
2023-11-18T00:31:38.517Z,13.68
2023-11-18T00:34:06.275Z,18.00
2023-11-18T00:36:33.861Z,10.85
2023-11-18T00:39:01.719Z,15.20
2023-11-18T00:41:29.221Z,16.02
2023-11-18T00:43:57.653Z,16.52
2023-11-18T00:46:25.814Z,21.40
2023-11-18T00:48:53.416Z,17.52
2023-11-18T00:51:21.063Z,7.88
2023-11-18T00:53:48.714Z,17.85
2023-11-18T00:56:19.364Z,13.95
2023-11-18T00:58:47.018Z,21.38
2023-11-18T01:01:14.573Z,8.70
2023-11-18T01:03:42.189Z,18.13
2023-11-18T01:06:09.796Z,17.40
2023-11-18T01:08:37.385Z,12.80
2023-11-18T01:11:08.235Z,6.82
2023-11-18T01:13:35.822Z,14.98
2023-11-18T01:16:05.500Z,9.20
2023-11-18T01:18:33.143Z,8.63
2023-11-18T01:21:01.523Z,7.13
2023-11-18T01:23:29.088Z,16.90
2023-11-18T01:25:58.514Z,16.17
2023-11-18T01:28:27.462Z,10.75
2023-11-18T01:30:55.094Z,13.63
2023-11-18T01:33:24.047Z,7.05
2023-11-18T01:35:51.723Z,5.82
2023-11-18T01:38:21.520Z,13.10
2023-11-18T01:40:49.486Z,8.05
2023-11-18T01:43:17.349Z,9.45
2023-11-18T01:45:44.931Z,9.45
2023-11-18T01:48:12.589Z,12.20
2023-11-18T01:50:42.201Z,6.60
2023-11-18T01:53:11.084Z,9.77
2023-11-18T01:55:39.788Z,14.47
2023-11-18T01:58:11.608Z,13.95
2023-11-18T02:00:42.672Z,17.55
2023-11-18T02:03:10.708Z,8.10
2023-11-18T02:05:38.509Z,9.07
2023-11-18T02:08:08.217Z,18.85
2023-11-18T02:10:37.793Z,21.08
2023-11-18T02:13:17.582Z,15.83
2023-11-18T02:15:46.692Z,13.40
2023-11-18T02:18:14.806Z,9.40
2023-11-18T02:20:42.832Z,13.85
2023-11-18T02:23:10.636Z,7.90
2023-11-18T02:25:44.267Z,11.90
2023-11-18T02:28:11.854Z,17.02
2023-11-18T02:30:39.877Z,10.75
2023-11-18T02:33:26.571Z,8.63
2023-11-18T02:35:57.637Z,15.90
2023-11-18T02:38:30.615Z,15.85
2023-11-18T02:40:59.834Z,10.90
2023-11-18T02:43:29.763Z,8.10
2023-11-18T02:45:58.683Z,11.23
2023-11-18T02:48:29.531Z,8.85
2023-11-18T02:50:58.372Z,15.13
2023-11-18T02:53:26.727Z,9.30
2023-11-18T02:55:54.470Z,6.97
2023-11-18T02:58:22.223Z,13.77
2023-11-18T03:00:49.795Z,6.47
2023-11-18T03:03:18.091Z,14.50
2023-11-18T03:05:46.737Z,13.23
2023-11-18T03:08:14.499Z,16.63
2023-11-18T03:10:45.356Z,9.43
2023-11-18T03:13:15.822Z,16.48
2023-11-18T03:15:43.354Z,15.70
2023-11-18T03:18:11.565Z,17.15
2023-11-18T03:20:39.585Z,6.85
2023-11-18T03:23:10.146Z,14.32
2023-11-18T03:25:39.163Z,16.92
2023-11-18T03:28:09.887Z,13.10
2023-11-18T03:30:39.016Z,9.43
2023-11-18T03:33:06.742Z,13.25
2023-11-18T03:35:34.444Z,11.95
2023-11-18T03:38:02.110Z,7.53
2023-11-18T03:40:30.237Z,8.10
2023-11-18T03:42:59.678Z,8.07
2023-11-18T03:45:27.452Z,10.87
2023-11-18T03:47:55.059Z,6.68
2023-11-18T03:50:22.798Z,11.88
2023-11-18T03:52:50.355Z,8.20
2023-11-18T03:55:19.172Z,12.38
2023-11-18T03:57:46.702Z,12.43
2023-11-18T04:00:16.900Z,11.02
2023-11-18T04:02:47.064Z,7.50
2023-11-18T04:05:14.835Z,13.43
2023-11-18T04:07:43.039Z,10.90
2023-11-18T04:10:11.735Z,13.17
2023-11-18T04:12:39.577Z,11.93
2023-11-18T04:15:08.630Z,9.55
2023-11-18T04:17:36.422Z,6.55
2023-11-18T04:20:06.454Z,8.13
2023-11-18T04:22:34.118Z,8.65
2023-11-18T04:25:01.660Z,8.73
2023-11-18T04:27:29.249Z,10.88
2023-11-18T04:29:56.843Z,11.40
2023-11-18T04:32:24.392Z,13.57
2023-11-18T04:34:52.289Z,9.05
2023-11-18T04:37:20.099Z,10.93
2023-11-18T04:39:47.664Z,6.80
2023-11-18T04:42:16.450Z,5.00
2023-11-18T04:44:44.402Z,8.13
2023-11-18T04:47:12.277Z,7.43
2023-11-18T04:49:40.149Z,10.85
2023-11-18T04:52:07.712Z,7.55
2023-11-18T04:54:35.282Z,8.03
2023-11-18T04:57:03.290Z,11.38
2023-11-18T04:59:31.976Z,9.20
2023-11-18T05:01:59.544Z,11.30
2023-11-18T05:04:27.077Z,11.02
2023-11-18T05:06:54.610Z,12.23
2023-11-18T05:09:22.288Z,10.68
2023-11-18T05:11:49.832Z,11.77
2023-11-18T05:14:18.057Z,9.82
2023-11-18T05:16:45.934Z,6.93
2023-11-18T05:19:13.549Z,10.30
2023-11-18T05:21:41.213Z,8.07
2023-11-18T05:24:08.867Z,11.38
2023-11-18T05:26:36.483Z,10.63
2023-11-18T05:29:04.236Z,7.72
2023-11-18T05:31:33.145Z,6.20
2023-11-18T05:34:04.358Z,8.18
2023-11-18T05:36:38.177Z,6.65
2023-11-18T05:39:06.336Z,6.43
2023-11-18T05:41:36.257Z,4.95
2023-11-18T05:44:03.917Z,10.18
2023-11-18T05:46:33.411Z,6.43
2023-11-18T05:49:03.699Z,7.80
2023-11-18T05:51:31.265Z,9.20
2023-11-18T05:53:58.813Z,12.70
2023-11-18T05:56:26.390Z,14.20
2023-11-18T05:58:57.018Z,13.52
2023-11-18T06:01:25.456Z,7.03
2023-11-18T06:03:53.379Z,7.10
2023-11-18T06:06:24.513Z,10.25
2023-11-18T06:08:53.324Z,12.40
2023-11-18T06:11:21.327Z,15.20
2023-11-18T06:13:50.691Z,9.13
2023-11-18T06:16:23.029Z,8.37
2023-11-18T06:18:51.858Z,9.10
2023-11-18T06:21:20.983Z,8.57
2023-11-18T06:23:49.599Z,12.00
2023-11-18T06:26:17.673Z,11.13
2023-11-18T06:28:46.262Z,8.30
2023-11-18T06:31:15.222Z,15.02
2023-11-18T06:33:44.849Z,7.20
2023-11-18T06:36:12.805Z,10.38
2023-11-18T06:38:41.456Z,8.55
2023-11-18T06:41:14.196Z,7.95
2023-11-18T06:44:00.641Z,13.32
2023-11-18T06:46:32.860Z,10.15
2023-11-18T06:49:04.889Z,6.82
2023-11-18T06:51:36.354Z,7.30
2023-11-18T06:54:09.338Z,14.43
2023-11-18T06:56:44.788Z,9.15
2023-11-18T06:59:13.951Z,9.03
2023-11-18T07:01:43.714Z,15.75
2023-11-18T07:04:11.677Z,10.47
2023-11-18T07:06:39.698Z,8.07
2023-11-18T07:09:15.391Z,11.80
2023-11-18T07:11:43.143Z,11.40
2023-11-18T07:14:11.272Z,11.45
2023-11-18T07:16:42.510Z,15.07
2023-11-18T07:19:15.956Z,15.60
2023-11-18T07:21:43.482Z,7.75
2023-11-18T07:24:11.112Z,7.72
2023-11-18T07:26:38.899Z,8.93
2023-11-18T07:29:08.987Z,8.73
2023-11-18T07:31:37.256Z,9.98
2023-11-18T07:34:06.560Z,15.73
2023-11-18T07:36:34.649Z,10.37
2023-11-18T07:39:04.004Z,12.80
2023-11-18T07:41:34.834Z,8.63
2023-11-18T07:44:03.088Z,13.02
2023-11-18T07:46:32.849Z,7.18
2023-11-18T07:49:02.496Z,13.80
2023-11-18T07:51:30.237Z,9.18
2023-11-18T07:53:59.088Z,11.83
2023-11-18T07:56:28.186Z,10.82
2023-11-18T07:58:55.858Z,12.80
2023-11-18T08:01:23.574Z,14.18
2023-11-18T08:03:53.957Z,14.33
2023-11-18T08:06:21.821Z,11.40
2023-11-18T08:08:49.655Z,14.05
2023-11-18T08:11:18.490Z,14.20
2023-11-18T08:13:46.114Z,9.15
2023-11-18T08:16:15.832Z,11.73
2023-11-18T08:18:43.599Z,9.90
2023-11-18T08:21:11.539Z,9.00
2023-11-18T08:23:39.088Z,12.15
2023-11-18T08:26:07.372Z,8.60
2023-11-18T08:28:35.231Z,13.85
2023-11-18T08:31:02.878Z,13.18
2023-11-18T08:33:31.408Z,12.70
2023-11-18T08:35:59.049Z,12.05
2023-11-18T08:38:30.016Z,13.82
2023-11-18T08:40:57.675Z,9.57
2023-11-18T08:43:26.580Z,10.15
2023-11-18T08:45:54.430Z,14.48
2023-11-18T08:48:24.043Z,13.98
2023-11-18T08:50:52.720Z,11.15
2023-11-18T08:53:27.110Z,9.10
2023-11-18T08:55:55.652Z,6.85
2023-11-18T08:58:28.187Z,6.10
2023-11-18T09:01:07.307Z,10.15
2023-11-18T09:03:36.147Z,10.90
2023-11-18T09:06:05.473Z,13.57
2023-11-18T09:08:35.991Z,9.38
2023-11-18T09:11:06.162Z,9.75
2023-11-18T09:13:35.886Z,9.80
2023-11-18T09:16:04.634Z,14.33
2023-11-18T09:18:34.577Z,13.50
2023-11-18T09:21:03.950Z,7.33
2023-11-18T09:23:32.990Z,7.75
2023-11-18T09:26:00.719Z,12.40
2023-11-18T09:28:31.944Z,10.13
2023-11-18T09:30:59.509Z,9.77
2023-11-18T09:33:30.307Z,11.57
2023-11-18T09:36:01.222Z,12.02
2023-11-18T09:38:32.738Z,10.77
2023-11-18T09:41:04.510Z,7.50
2023-11-18T09:43:44.458Z,9.65
2023-11-18T09:46:15.927Z,10.30
2023-11-18T09:48:44.071Z,9.73
2023-11-18T09:51:11.888Z,8.98
2023-11-18T09:53:41.410Z,5.28
2023-11-18T09:56:19.720Z,6.70
2023-11-18T09:58:50.859Z,9.13
2023-11-18T10:01:20.948Z,6.40
2023-11-18T10:03:50.134Z,5.63
2023-11-18T10:06:17.880Z,9.75
2023-11-18T10:08:47.187Z,7.20
2023-11-18T10:11:14.947Z,11.13
2023-11-18T10:13:45.200Z,7.13
2023-11-18T10:16:12.802Z,7.47
2023-11-18T10:18:43.556Z,8.13
2023-11-18T10:21:12.802Z,7.97
2023-11-18T10:23:40.398Z,7.70
2023-11-18T10:26:08.808Z,10.50
2023-11-18T10:28:39.948Z,13.00
2023-11-18T10:31:10.372Z,7.80
2023-11-18T10:33:44.719Z,10.30
2023-11-18T10:36:25.372Z,6.43
2023-11-18T10:38:56.867Z,7.65
2023-11-18T10:41:25.038Z,7.85
2023-11-18T10:44:07.954Z,5.33
2023-11-18T10:46:36.412Z,5.50
2023-11-18T10:49:07.579Z,7.65
2023-11-18T10:51:36.023Z,6.13
2023-11-18T10:54:05.202Z,3.25
2023-11-18T10:56:34.092Z,7.75
2023-11-18T10:59:08.529Z,6.53
2023-11-18T11:01:45.954Z,6.07
2023-11-18T11:04:14.717Z,7.28
2023-11-18T11:06:57.223Z,5.47
2023-11-18T11:09:29.515Z,9.07
2023-11-18T11:12:07.664Z,6.07
2023-11-18T11:14:42.325Z,6.80
2023-11-18T11:17:12.823Z,7.05
2023-11-18T11:19:56.656Z,8.83
2023-11-18T11:22:26.650Z,5.47
2023-11-18T11:25:24.135Z,4.85
2023-11-18T11:28:02.942Z,7.93
2023-11-18T11:30:33.971Z,4.83
2023-11-18T11:33:13.246Z,5.95
2023-11-18T11:35:45.725Z,6.82
2023-11-18T11:38:17.926Z,5.82
2023-11-18T11:40:47.483Z,4.32
2023-11-18T11:43:22.691Z,5.85
2023-11-18T11:45:53.017Z,5.32
2023-11-18T11:48:27.714Z,5.88
2023-11-18T11:51:16.194Z,4.93
2023-11-18T11:53:46.753Z,4.65
2023-11-18T11:56:22.356Z,5.30
2023-11-18T11:58:54.812Z,4.47
2023-11-18T12:01:33.817Z,5.20
2023-11-18T12:04:07.678Z,3.05
2023-11-18T12:06:36.752Z,6.70
2023-11-18T12:09:07.679Z,4.03
2023-11-18T12:11:40.568Z,4.32
2023-11-18T12:14:21.228Z,6.47
2023-11-18T12:17:08.638Z,5.37
2023-11-18T12:19:48.088Z,4.50
2023-11-18T12:22:27.412Z,4.82
2023-11-18T12:25:06.090Z,5.40
2023-11-18T12:28:03.434Z,5.87
2023-11-18T12:30:38.728Z,3.88
2023-11-18T12:33:10.299Z,2.75
2023-11-18T12:35:54.251Z,3.67
2023-11-18T12:38:46.610Z,3.72
2023-11-18T12:41:34.445Z,4.87
2023-11-18T12:44:20.845Z,3.17
2023-11-18T12:47:19.325Z,4.53
2023-11-18T12:49:55.416Z,2.10
2023-11-18T12:52:23.987Z,3.10
2023-11-18T12:54:52.160Z,2.72
2023-11-18T12:57:25.566Z,1.92
2023-11-18T12:59:53.997Z,5.70
2023-11-18T13:02:22.170Z,2.85
2023-11-18T13:04:50.723Z,3.08
2023-11-18T13:07:19.687Z,2.03
2023-11-18T13:09:47.569Z,2.80
2023-11-18T13:12:21.245Z,3.10
2023-11-18T13:14:48.974Z,2.83
2023-11-18T13:17:17.900Z,3.53
2023-11-18T13:19:46.127Z,3.30
2023-11-18T13:22:14.925Z,3.33
2023-11-18T13:24:47.916Z,3.08
2023-11-18T13:27:17.278Z,4.33
2023-11-18T13:29:54.756Z,2.47
2023-11-18T13:32:27.804Z,2.50
2023-11-18T13:34:56.152Z,1.38
2023-11-18T13:37:24.537Z,1.48
2023-11-18T13:39:55.977Z,0.77
2023-11-18T13:42:24.410Z,0.90
2023-11-18T13:44:54.105Z,0.90
2023-11-18T13:47:23.941Z,0.90
2023-11-18T13:49:53.397Z,0.90
2023-11-18T13:52:22.055Z,0.98
2023-11-18T13:54:51.571Z,0.90
2023-11-18T13:57:19.164Z,0.90
2023-11-18T13:59:46.736Z,0.90
2023-11-18T14:02:14.765Z,1.38
2023-11-18T14:04:44.473Z,0.90
2023-11-18T14:07:17.140Z,1.00
2023-11-18T14:09:46.483Z,0.90
2023-11-18T14:12:15.172Z,0.85
2023-11-18T14:14:42.878Z,0.90
2023-11-18T14:17:13.375Z,0.80
2023-11-18T14:19:42.794Z,2.50
2023-11-18T14:22:10.950Z,0.80
2023-11-18T14:24:39.299Z,0.82
2023-11-18T14:27:08.900Z,0.90
2023-11-18T14:29:37.616Z,1.00
2023-11-18T14:32:07.078Z,1.70
2023-11-18T14:34:34.651Z,1.67
2023-11-18T14:37:02.265Z,1.67
2023-11-18T14:39:30.724Z,1.50
2023-11-18T14:41:58.432Z,1.92
2023-11-18T14:44:26.849Z,1.57
2023-11-18T14:46:55.810Z,1.60
2023-11-18T14:49:23.649Z,2.20
2023-11-18T14:51:51.227Z,1.90
2023-11-18T14:54:19.054Z,1.90
2023-11-18T14:56:50.179Z,1.50
2023-11-18T14:59:17.951Z,1.42
2023-11-18T15:01:49.641Z,1.88
2023-11-18T15:04:17.369Z,0.90
2023-11-18T15:06:46.185Z,0.90
2023-11-18T15:09:13.682Z,0.90
2023-11-18T15:11:41.261Z,0.90
2023-11-18T15:14:09.115Z,0.90
2023-11-18T15:16:36.899Z,0.90
2023-11-18T15:19:04.833Z,0.73
2023-11-18T15:21:32.374Z,0.90
2023-11-18T15:24:04.738Z,0.90
2023-11-18T15:26:33.080Z,0.90
2023-11-18T15:29:02.691Z,1.00
2023-11-18T15:31:30.904Z,1.80
2023-11-18T15:33:58.506Z,1.85
2023-11-18T15:36:26.570Z,1.50
2023-11-18T15:38:54.271Z,1.60
2023-11-18T15:41:23.228Z,1.63
2023-11-18T15:43:50.891Z,1.20
2023-11-18T15:46:20.200Z,1.00
2023-11-18T15:48:48.359Z,1.00
2023-11-18T15:51:17.087Z,0.90
2023-11-18T15:53:44.630Z,0.90
2023-11-18T15:56:12.304Z,0.90
2023-11-18T15:58:40.095Z,0.90
2023-11-18T16:01:08.525Z,1.15
2023-11-18T16:03:36.133Z,0.90
2023-11-18T16:06:03.762Z,0.90
2023-11-18T16:08:32.193Z,0.90
2023-11-18T16:11:01.331Z,0.93
2023-11-18T16:13:28.999Z,0.90
2023-11-18T16:15:56.740Z,0.90
2023-11-18T16:18:24.423Z,0.90
2023-11-18T16:20:52.917Z,0.98
2023-11-18T16:23:22.446Z,0.90
2023-11-18T16:25:50.094Z,0.90
2023-11-18T16:28:17.755Z,1.00
2023-11-18T16:30:45.466Z,1.00
2023-11-18T16:33:13.164Z,1.00
2023-11-18T16:35:40.882Z,1.00
2023-11-18T16:38:09.085Z,0.90
2023-11-18T16:40:36.891Z,1.00
2023-11-18T16:43:06.013Z,1.05
2023-11-18T16:45:33.674Z,1.00
2023-11-18T16:48:01.302Z,1.00
2023-11-18T16:50:30.495Z,1.00
2023-11-18T16:53:00.421Z,1.48
2023-11-18T16:55:28.160Z,1.50
2023-11-18T16:57:55.778Z,1.65
2023-11-18T17:00:24.354Z,1.00
2023-11-18T17:02:59.304Z,1.00
2023-11-18T17:05:32.374Z,1.00
2023-11-18T17:08:01.833Z,1.00
2023-11-18T17:10:30.237Z,0.90
2023-11-18T17:12:59.151Z,1.00
2023-11-18T17:15:26.874Z,1.02
2023-11-18T17:18:01.514Z,1.00
2023-11-18T17:20:29.448Z,1.10
2023-11-18T17:22:57.146Z,1.00
2023-11-18T17:25:25.081Z,1.10
2023-11-18T17:27:55.648Z,1.00
2023-11-18T17:30:23.290Z,1.00
2023-11-18T17:32:53.149Z,1.00
2023-11-18T17:35:24.499Z,1.02
2023-11-18T17:37:52.058Z,1.00
2023-11-18T17:40:22.553Z,1.00
2023-11-18T17:42:54.506Z,1.00
2023-11-18T17:45:22.646Z,1.10
2023-11-18T17:47:50.310Z,1.20
2023-11-18T17:50:19.757Z,0.93
2023-11-18T17:52:48.411Z,1.00
2023-11-18T17:55:16.399Z,0.98
2023-11-18T17:57:52.547Z,1.00
2023-11-18T18:00:25.188Z,1.00
2023-11-18T18:02:53.972Z,1.00
2023-11-18T18:05:22.113Z,1.10
2023-11-18T18:07:49.707Z,1.00
2023-11-18T18:10:18.131Z,1.10
2023-11-18T18:12:47.948Z,1.00
2023-11-18T18:15:16.032Z,1.00
2023-11-18T18:17:44.154Z,1.00
2023-11-18T18:20:13.305Z,1.10
2023-11-18T18:22:42.098Z,1.10
2023-11-18T18:25:11.036Z,1.10
2023-11-18T18:27:39.563Z,1.13
2023-11-18T18:30:07.637Z,1.00
2023-11-18T18:32:35.324Z,1.00
2023-11-18T18:35:03.685Z,4.90
2023-11-18T18:37:31.320Z,1.00
2023-11-18T18:39:59.700Z,1.00
2023-11-18T18:42:29.846Z,1.10
2023-11-18T18:44:57.968Z,1.23
2023-11-18T18:47:27.835Z,1.00
2023-11-18T18:49:57.597Z,1.20
2023-11-18T18:52:25.251Z,1.10
2023-11-18T18:54:52.928Z,1.10
2023-11-18T18:57:20.598Z,1.10
2023-11-18T18:59:49.129Z,1.17
2023-11-18T19:02:17.023Z,1.10
2023-11-18T19:04:44.649Z,1.17
2023-11-18T19:07:12.207Z,1.30
2023-11-18T19:09:39.823Z,1.20
2023-11-18T19:12:08.993Z,1.30
2023-11-18T19:14:36.581Z,1.20
2023-11-18T19:17:06.149Z,1.00
2023-11-18T19:19:33.798Z,1.20
2023-11-18T19:22:02.814Z,1.20
2023-11-18T19:24:31.652Z,14.70
2023-11-18T19:26:59.497Z,1.20
2023-11-18T19:29:27.341Z,1.13
2023-11-18T19:31:55.255Z,1.20
2023-11-18T19:34:22.922Z,1.10
2023-11-18T19:36:50.632Z,1.00
2023-11-18T19:39:18.364Z,1.13
2023-11-18T19:41:46.709Z,1.10
2023-11-18T19:44:14.309Z,1.10
2023-11-18T19:46:43.532Z,1.25
2023-11-18T19:49:11.767Z,1.17
2023-11-18T19:51:39.430Z,1.15
2023-11-18T19:54:07.161Z,1.13
2023-11-18T19:56:34.970Z,1.20
2023-11-18T19:59:02.616Z,1.20
2023-11-18T20:01:30.248Z,1.20
2023-11-18T20:03:57.954Z,1.10
2023-11-18T20:06:25.511Z,1.10
2023-11-18T20:08:53.037Z,1.20
2023-11-18T20:11:20.600Z,1.20
2023-11-18T20:13:48.163Z,1.10
2023-11-18T20:16:18.255Z,1.20
2023-11-18T20:18:45.814Z,1.20
2023-11-18T20:21:13.359Z,1.25
2023-11-18T20:23:40.997Z,1.20
2023-11-18T20:26:10.125Z,1.90
2023-11-18T20:28:39.996Z,1.20
2023-11-18T20:31:09.900Z,1.20
2023-11-18T20:33:42.614Z,1.17
2023-11-18T20:36:10.825Z,1.23
2023-11-18T20:38:38.512Z,1.20
2023-11-18T20:41:06.386Z,1.20
2023-11-18T20:43:34.082Z,2.90
2023-11-18T20:46:01.712Z,1.20
2023-11-18T20:48:31.887Z,1.30
2023-11-18T20:50:59.488Z,1.10
2023-11-18T20:53:27.157Z,1.10
2023-11-18T20:55:54.774Z,1.30
2023-11-18T20:58:23.983Z,12.65
2023-11-18T21:00:51.501Z,1.40
2023-11-18T21:03:20.810Z,1.20
2023-11-18T21:05:49.197Z,1.40
2023-11-18T21:08:17.616Z,1.13
2023-11-18T21:10:45.340Z,1.17
2023-11-18T21:13:12.892Z,1.17
2023-11-18T21:15:40.553Z,1.15
2023-11-18T21:18:08.645Z,1.20
2023-11-18T21:20:36.247Z,1.10
2023-11-18T21:23:03.995Z,1.10
2023-11-18T21:25:31.809Z,1.15
2023-11-18T21:28:04.310Z,1.20
2023-11-18T21:30:33.267Z,1.25
2023-11-18T21:33:04.668Z,1.30
2023-11-18T21:35:32.352Z,1.13
2023-11-18T21:37:59.951Z,1.27
2023-11-18T21:40:29.595Z,1.10
2023-11-18T21:42:58.177Z,1.33
2023-11-18T21:45:28.432Z,1.50
2023-11-18T21:47:56.508Z,1.10
2023-11-18T21:50:24.311Z,1.30
2023-11-18T21:52:51.857Z,1.10
2023-11-18T21:55:22.034Z,1.20
2023-11-18T21:57:49.655Z,1.50
2023-11-18T22:00:20.743Z,6.00
2023-11-18T22:02:51.854Z,1.20
2023-11-18T22:05:19.746Z,1.10
2023-11-18T22:07:48.018Z,1.20
2023-11-18T22:10:19.998Z,1.20
2023-11-18T22:12:48.139Z,1.30
2023-11-18T22:15:17.696Z,1.40
2023-11-18T22:17:46.148Z,1.30
2023-11-18T22:20:15.897Z,1.20
2023-11-18T22:22:43.891Z,1.20
2023-11-18T22:25:11.650Z,1.23
2023-11-18T22:27:41.550Z,1.20
2023-11-18T22:30:13.102Z,1.20
2023-11-18T22:32:41.485Z,1.40
2023-11-18T22:35:09.887Z,1.20
2023-11-18T22:37:37.673Z,1.20
2023-11-18T22:40:11.472Z,1.30
2023-11-18T22:42:40.769Z,1.20
2023-11-18T22:45:18.117Z,2.65
2023-11-18T22:47:51.753Z,1.30
2023-11-18T22:50:22.426Z,1.30
2023-11-18T22:53:01.309Z,1.20
2023-11-18T22:55:28.913Z,1.20
2023-11-18T22:57:57.777Z,1.20
2023-11-18T23:00:39.240Z,1.30
2023-11-18T23:03:08.019Z,1.50
2023-11-18T23:05:42.044Z,1.30
2023-11-18T23:08:09.926Z,18.30
2023-11-18T23:10:41.239Z,1.30
2023-11-18T23:13:09.118Z,1.40
2023-11-18T23:15:36.811Z,1.27
2023-11-18T23:18:07.350Z,1.30
2023-11-18T23:20:37.567Z,1.30
2023-11-18T23:23:06.171Z,1.30
2023-11-18T23:25:34.591Z,1.40
2023-11-18T23:28:05.942Z,1.20
2023-11-18T23:30:33.750Z,1.25
2023-11-18T23:33:01.389Z,1.20
2023-11-18T23:35:29.502Z,1.70
2023-11-18T23:37:57.300Z,17.30
2023-11-18T23:40:26.045Z,1.30
2023-11-18T23:42:53.789Z,1.80
2023-11-18T23:45:21.438Z,1.30
2023-11-18T23:47:51.946Z,1.42
2023-11-18T23:50:21.126Z,1.33
2023-11-18T23:52:49.037Z,1.30
2023-11-18T23:55:16.775Z,1.40
2023-11-18T23:57:44.969Z,1.20
